createdAt,value
2023-01-07T00:00:05.579Z,10.30
2023-01-07T00:02:53.856Z,10.30
2023-01-07T00:05:41.804Z,10.30
2023-01-07T00:08:31.607Z,10.30
2023-01-07T00:11:21.312Z,10.30
2023-01-07T00:14:12.784Z,10.40
2023-01-07T00:17:00.765Z,10.40
2023-01-07T00:19:48.711Z,10.30
2023-01-07T00:22:36.686Z,10.40
2023-01-07T00:25:24.653Z,10.30
2023-01-07T00:28:12.599Z,10.30
2023-01-07T00:31:02.795Z,10.40
2023-01-07T00:34:06.869Z,10.40
2023-01-07T00:37:16.353Z,10.40
2023-01-07T00:40:04.368Z,10.30
2023-01-07T00:43:02.265Z,10.30
2023-01-07T00:45:50.259Z,10.40
2023-01-07T00:48:39.577Z,10.40
2023-01-07T00:51:27.624Z,10.30
2023-01-07T00:54:16.214Z,10.40
2023-01-07T00:57:04.196Z,10.10
2023-01-07T00:59:52.307Z,10.30
2023-01-07T01:02:40.751Z,10.30
2023-01-07T01:05:30.083Z,10.30
2023-01-07T01:08:18.794Z,10.30
2023-01-07T01:11:08.490Z,10.30
2023-01-07T01:13:56.514Z,10.30
2023-01-07T01:16:44.506Z,10.30
2023-01-07T01:19:32.597Z,10.30
2023-01-07T01:22:22.111Z,10.30
2023-01-07T01:25:10.939Z,10.30
2023-01-07T01:27:58.916Z,10.30
2023-01-07T01:30:46.876Z,10.30
2023-01-07T01:33:35.094Z,10.30
2023-01-07T01:36:23.636Z,10.30
2023-01-07T01:39:13.300Z,10.30
2023-01-07T01:42:01.443Z,10.30
2023-01-07T01:44:51.578Z,10.30
2023-01-07T01:47:43.967Z,10.40
2023-01-07T01:50:37.996Z,10.40
2023-01-07T01:53:29.734Z,10.30
2023-01-07T01:56:22.627Z,10.30
2023-01-07T01:59:15.455Z,10.30
2023-01-07T02:02:03.962Z,10.30
2023-01-07T02:04:52.525Z,10.30
2023-01-07T02:07:40.524Z,10.30
2023-01-07T02:10:31.159Z,10.30
2023-01-07T02:13:32.136Z,10.20
2023-01-07T02:16:27.029Z,10.30
2023-01-07T02:19:44.993Z,10.30
2023-01-07T02:23:03.016Z,10.40
2023-01-07T02:26:42.248Z,10.30
2023-01-07T02:33:27.912Z,10.30
2023-01-07T02:36:37.770Z,10.30
2023-01-07T02:39:43.747Z,10.30
2023-01-07T02:42:41.066Z,10.30
2023-01-07T02:45:32.267Z,10.30
2023-01-07T02:48:23.912Z,10.30
2023-01-07T02:51:11.872Z,10.30
2023-01-07T02:53:59.961Z,10.30
2023-01-07T02:57:06.372Z,10.30
2023-01-07T03:00:15.814Z,10.30
2023-01-07T03:03:21.949Z,10.30
2023-01-07T03:06:25.802Z,10.30
2023-01-07T03:09:21.783Z,10.30
2023-01-07T03:12:17.212Z,10.30
2023-01-07T03:15:12.565Z,10.30
2023-01-07T03:18:03.839Z,10.30
2023-01-07T03:20:55.823Z,10.30
2023-01-07T03:23:49.884Z,10.30
2023-01-07T03:26:43.135Z,10.30
2023-01-07T03:29:32.925Z,10.30
2023-01-07T03:32:25.111Z,10.30
2023-01-07T03:35:13.385Z,10.30
2023-01-07T03:38:03.476Z,10.20
2023-01-07T03:40:53.744Z,10.30
2023-01-07T03:43:40.749Z,10.20
2023-01-07T03:46:29.083Z,10.20
2023-01-07T03:49:17.151Z,10.20
2023-01-07T03:52:05.295Z,10.30
2023-01-07T03:54:53.296Z,10.20
2023-01-07T03:57:42.612Z,10.20
2023-01-07T04:00:30.602Z,10.30
2023-01-07T04:03:18.578Z,10.20
2023-01-07T04:06:06.677Z,10.30
2023-01-07T04:08:54.670Z,10.30
2023-01-07T04:11:42.663Z,10.30
2023-01-07T04:14:32.075Z,10.30
2023-01-07T04:17:20.105Z,10.30
2023-01-07T04:20:09.173Z,10.30
2023-01-07T04:22:57.133Z,10.20
2023-01-07T04:25:47.626Z,10.30
2023-01-07T04:28:35.657Z,10.30
2023-01-07T04:31:24.973Z,10.30
2023-01-07T04:34:13.135Z,10.20
2023-01-07T04:37:01.147Z,10.20
2023-01-07T04:39:49.175Z,10.20
2023-01-07T04:42:37.319Z,10.20
2023-01-07T04:45:25.365Z,10.20
2023-01-07T04:48:14.743Z,10.20
2023-01-07T04:51:02.998Z,10.10
2023-01-07T04:53:51.129Z,10.20
2023-01-07T04:56:39.107Z,10.10
2023-01-07T04:59:27.086Z,10.10
2023-01-07T05:02:15.125Z,10.10
2023-01-07T05:05:04.765Z,10.20
2023-01-07T05:07:52.723Z,10.10
2023-01-07T05:10:40.752Z,10.10
2023-01-07T05:13:28.762Z,10.10
2023-01-07T05:16:16.832Z,10.10
2023-01-07T05:19:04.850Z,10.10
2023-01-07T05:21:54.313Z,10.10
2023-01-07T05:24:42.291Z,10.10
2023-01-07T05:27:30.225Z,10.10
2023-01-07T05:30:18.290Z,10.10
2023-01-07T05:33:07.324Z,10.00
2023-01-07T05:35:55.436Z,10.10
2023-01-07T05:38:44.749Z,10.00
2023-01-07T05:41:32.709Z,10.00
2023-01-07T05:44:20.664Z,10.00
2023-01-07T05:47:08.617Z,10.00
2023-01-07T05:49:56.573Z,10.10
2023-01-07T05:52:44.553Z,10.10
2023-01-07T05:55:33.983Z,10.10
2023-01-07T05:58:21.906Z,10.10
2023-01-07T06:01:09.899Z,10.00
2023-01-07T06:03:58.060Z,10.10
2023-01-07T06:06:46.055Z,10.10
2023-01-07T06:09:34.013Z,10.10
2023-01-07T06:12:23.335Z,10.10
2023-01-07T06:15:12.218Z,10.10
2023-01-07T06:18:00.181Z,10.10
2023-01-07T06:20:48.142Z,10.10
2023-01-07T06:23:37.165Z,10.00
2023-01-07T06:26:25.323Z,10.00
2023-01-07T06:29:14.742Z,10.00
2023-01-07T06:32:02.704Z,10.00
2023-01-07T06:34:50.771Z,10.00
2023-01-07T06:37:41.346Z,10.00
2023-01-07T06:40:29.462Z,10.00
2023-01-07T06:43:17.440Z,10.00
2023-01-07T06:46:07.077Z,10.10
2023-01-07T06:48:55.171Z,10.10
2023-01-07T06:51:43.097Z,10.00
2023-01-07T06:54:31.054Z,10.00
2023-01-07T06:57:19.018Z,10.00
2023-01-07T07:00:08.045Z,10.00
2023-01-07T07:02:57.584Z,9.90
2023-01-07T07:05:45.692Z,10.00
2023-01-07T07:08:33.727Z,10.00
2023-01-07T07:11:21.679Z,10.00
2023-01-07T07:14:09.647Z,10.00
2023-01-07T07:16:57.598Z,10.00
2023-01-07T07:19:46.936Z,9.90
2023-01-07T07:22:34.886Z,10.00
2023-01-07T07:25:22.933Z,9.90
2023-01-07T07:28:10.892Z,9.90
2023-01-07T07:30:58.992Z,9.80
2023-01-07T07:33:47.078Z,9.80
2023-01-07T07:36:36.467Z,9.80
2023-01-07T07:39:24.563Z,9.80
2023-01-07T07:42:14.084Z,9.80
2023-01-07T07:45:02.113Z,9.80
2023-01-07T07:47:50.570Z,9.80
2023-01-07T07:50:38.659Z,9.90
2023-01-07T07:53:28.016Z,9.90
2023-01-07T07:56:16.038Z,9.80
2023-01-07T07:59:04.161Z,9.90
2023-01-07T08:01:52.378Z,9.80
2023-01-07T08:04:40.522Z,9.90
2023-01-07T08:07:32.809Z,9.90
2023-01-07T08:10:23.274Z,9.90
2023-01-07T08:13:11.441Z,9.90
2023-01-07T08:15:59.632Z,9.90
2023-01-07T08:18:47.626Z,9.90
2023-01-07T08:21:35.621Z,9.90
2023-01-07T08:24:23.705Z,9.80
2023-01-07T08:27:13.079Z,9.70
2023-01-07T08:30:01.048Z,9.80
2023-01-07T08:32:49.171Z,9.90
2023-01-07T08:35:37.351Z,9.90
2023-01-07T08:38:27.364Z,9.90
2023-01-07T08:41:15.411Z,9.90
2023-01-07T08:44:05.005Z,9.90
2023-01-07T08:46:54.166Z,9.90
2023-01-07T08:49:42.218Z,9.90
2023-01-07T08:52:30.173Z,10.00
2023-01-07T08:55:18.439Z,10.00
2023-01-07T08:58:06.426Z,10.00
2023-01-07T09:00:55.944Z,10.00
2023-01-07T09:03:44.072Z,9.80
2023-01-07T09:06:32.063Z,9.90
2023-01-07T09:09:20.137Z,10.00
2023-01-07T09:12:10.810Z,9.90
2023-01-07T09:14:59.129Z,10.00
2023-01-07T09:17:48.635Z,9.90
2023-01-07T09:20:36.657Z,9.90
2023-01-07T09:23:24.620Z,10.00
2023-01-07T09:26:12.637Z,10.00
2023-01-07T09:29:00.583Z,10.00
2023-01-07T09:31:48.690Z,10.00
2023-01-07T09:34:38.469Z,10.00
2023-01-07T09:37:26.562Z,10.10
2023-01-07T09:40:23.720Z,10.10
2023-01-07T09:43:17.070Z,10.10
2023-01-07T09:46:09.639Z,10.20
2023-01-07T09:49:01.584Z,10.20
2023-01-07T09:51:55.535Z,10.20
2023-01-07T09:54:46.762Z,10.30
2023-01-07T09:57:34.956Z,10.20
2023-01-07T10:00:25.680Z,10.20
2023-01-07T10:03:24.162Z,10.20
2023-01-07T10:06:17.415Z,10.20
2023-01-07T10:09:13.705Z,10.20
2023-01-07T10:12:11.727Z,10.20
2023-01-07T10:15:21.918Z,10.30
2023-01-07T10:18:31.499Z,10.30
2023-01-07T10:21:23.331Z,10.30
2023-01-07T10:24:21.761Z,10.30
2023-01-07T10:27:16.055Z,10.30
2023-01-07T10:30:07.029Z,10.30
2023-01-07T10:33:03.764Z,10.30
2023-01-07T10:36:01.110Z,10.30
2023-01-07T10:38:57.256Z,10.30
2023-01-07T10:41:55.990Z,10.30
2023-01-07T10:45:15.421Z,10.30
2023-01-07T10:48:24.280Z,10.30
2023-01-07T10:51:30.343Z,10.30
2023-01-07T10:54:36.803Z,10.30
2023-01-07T10:57:28.797Z,10.30
2023-01-07T11:00:18.919Z,10.30
2023-01-07T11:03:17.699Z,10.30
2023-01-07T11:06:11.729Z,10.30
2023-01-07T11:08:59.714Z,10.30
2023-01-07T11:11:49.286Z,10.30
2023-01-07T11:14:41.759Z,10.30
2023-01-07T11:17:34.901Z,10.30
2023-01-07T11:20:42.853Z,10.30
2023-01-07T11:23:34.855Z,10.30
2023-01-07T11:26:26.967Z,10.20
2023-01-07T11:29:18.082Z,10.20
2023-01-07T11:32:15.752Z,10.20
2023-01-07T11:35:06.497Z,10.20
2023-01-07T11:37:54.637Z,10.30
2023-01-07T11:40:42.974Z,10.30
2023-01-07T11:43:34.276Z,10.20
2023-01-07T11:46:25.994Z,10.20
2023-01-07T11:49:30.881Z,10.20
2023-01-07T11:52:20.319Z,10.20
2023-01-07T11:55:19.713Z,10.20
2023-01-07T11:58:28.795Z,10.20
2023-01-07T12:01:19.771Z,10.40
2023-01-07T12:04:19.896Z,10.20
2023-01-07T12:07:15.210Z,10.20
2023-01-07T12:10:03.277Z,10.20
2023-01-07T12:12:52.522Z,10.20
2023-01-07T12:15:50.928Z,10.20
2023-01-07T12:19:05.844Z,10.30
2023-01-07T12:22:14.095Z,10.30
2023-01-07T12:25:17.046Z,10.20
2023-01-07T12:28:13.002Z,10.20
2023-01-07T12:31:12.033Z,10.20
2023-01-07T12:34:09.878Z,10.20
2023-01-07T12:37:02.647Z,10.30
2023-01-07T12:39:56.952Z,10.30
2023-01-07T12:42:50.784Z,10.30
2023-01-07T12:45:43.211Z,10.30
2023-01-07T12:48:37.321Z,10.30
2023-01-07T12:51:31.010Z,10.30
2023-01-07T12:54:35.172Z,10.30
2023-01-07T12:57:28.887Z,10.30
2023-01-07T13:00:20.124Z,10.30
2023-01-07T13:03:19.182Z,10.30
2023-01-07T13:06:13.340Z,10.20
2023-01-07T13:09:08.270Z,10.20
2023-01-07T13:12:40.723Z,10.30
2023-01-07T13:15:31.251Z,10.30
2023-01-07T13:18:21.288Z,10.30
2023-01-07T13:21:11.715Z,10.30
2023-01-07T13:24:20.868Z,10.30
2023-01-07T13:27:35.155Z,10.30
2023-01-07T13:30:32.062Z,10.30
2023-01-07T13:33:25.606Z,10.30
2023-01-07T13:36:29.844Z,10.30
2023-01-07T13:39:29.367Z,10.30
2023-01-07T13:42:30.884Z,10.40
2023-01-07T13:45:22.361Z,10.60
2023-01-07T13:48:20.331Z,10.50
2023-01-07T13:51:10.808Z,10.50
2023-01-07T13:53:59.005Z,10.40
2023-01-07T13:56:47.165Z,10.40
2023-01-07T13:59:49.512Z,10.40
2023-01-07T14:02:56.531Z,10.40
2023-01-07T14:05:45.918Z,10.30
2023-01-07T14:08:33.963Z,10.30
2023-01-07T14:11:48.870Z,10.30
2023-01-07T14:14:45.805Z,10.30
2023-01-07T14:17:41.134Z,10.30
2023-01-07T14:20:35.614Z,10.40
2023-01-07T14:23:33.982Z,10.30
2023-01-07T14:26:30.086Z,10.30
2023-01-07T14:29:39.638Z,10.30
2023-01-07T14:32:34.257Z,10.30
2023-01-07T14:35:27.975Z,10.30
2023-01-07T14:39:01.224Z,10.20
2023-01-07T14:42:22.770Z,10.30
2023-01-07T14:45:44.239Z,10.20
2023-01-07T14:48:38.170Z,10.20
2023-01-07T14:51:51.492Z,10.20
2023-01-07T14:55:11.548Z,10.20
2023-01-07T14:58:12.573Z,10.10
2023-01-07T15:01:44.483Z,10.10
2023-01-07T15:05:10.561Z,10.20
2023-01-07T15:08:16.112Z,10.20
2023-01-07T15:11:25.634Z,10.10
2023-01-07T15:14:41.327Z,10.10
2023-01-07T15:17:29.655Z,10.10
2023-01-07T15:20:19.119Z,10.10
2023-01-07T15:23:11.630Z,10.10
2023-01-07T15:26:06.425Z,10.00
2023-01-07T15:29:01.708Z,10.10
2023-01-07T15:31:58.564Z,10.00
2023-01-07T15:34:46.853Z,10.10
2023-01-07T15:37:36.221Z,10.00
2023-01-07T15:40:26.489Z,10.00
2023-01-07T15:43:23.913Z,10.00
2023-01-07T15:46:14.915Z,10.00
2023-01-07T15:49:17.871Z,9.90
2023-01-07T15:52:23.898Z,9.90
2023-01-07T15:55:21.551Z,9.90
2023-01-07T15:58:17.061Z,10.00
2023-01-07T16:01:07.645Z,9.90
2023-01-07T16:03:57.910Z,10.00
2023-01-07T16:06:46.936Z,10.00
2023-01-07T16:09:35.593Z,9.90
2023-01-07T16:12:34.236Z,9.90
2023-01-07T16:15:28.088Z,10.00
2023-01-07T16:18:20.020Z,9.90
2023-01-07T16:21:14.631Z,9.90
2023-01-07T16:24:02.701Z,9.90
2023-01-07T16:26:55.210Z,9.90
2023-01-07T16:29:51.379Z,9.90
2023-01-07T16:32:39.572Z,9.90
2023-01-07T16:35:32.960Z,9.90
2023-01-07T16:38:21.539Z,9.80
2023-01-07T16:41:21.617Z,9.80
2023-01-07T16:44:57.197Z,9.80
2023-01-07T16:48:01.020Z,9.80
2023-01-07T16:50:50.031Z,9.70
2023-01-07T16:53:38.145Z,9.70
2023-01-07T16:56:26.219Z,9.70
2023-01-07T16:59:15.823Z,9.70
2023-01-07T17:02:13.801Z,9.70
2023-01-07T17:05:19.263Z,9.70
2023-01-07T17:08:18.587Z,9.70
2023-01-07T17:11:19.366Z,9.60
2023-01-07T17:14:47.089Z,9.60
2023-01-07T17:17:35.425Z,9.60
2023-01-07T17:20:23.453Z,9.60
2023-01-07T17:23:33.161Z,9.50
2023-01-07T17:26:23.669Z,9.30
2023-01-07T17:29:13.517Z,9.50
2023-01-07T17:32:04.560Z,9.40
2023-01-07T17:34:52.543Z,9.40
2023-01-07T17:37:40.576Z,9.40
2023-01-07T17:40:28.593Z,9.40
2023-01-07T17:43:37.604Z,9.40
2023-01-07T17:46:25.603Z,9.40
2023-01-07T17:49:15.020Z,9.40
2023-01-07T17:52:03.418Z,9.40
2023-01-07T17:54:51.347Z,9.40
2023-01-07T17:57:39.286Z,9.40
2023-01-07T18:00:30.990Z,9.40
2023-01-07T18:03:18.946Z,9.40
2023-01-07T18:06:17.395Z,9.30
2023-01-07T18:09:08.499Z,9.30
2023-01-07T18:12:13.796Z,9.30
2023-01-07T18:15:04.193Z,9.30
2023-01-07T18:17:52.830Z,9.30
2023-01-07T18:20:40.887Z,9.30
2023-01-07T18:23:30.201Z,9.30
2023-01-07T18:26:19.133Z,9.20
2023-01-07T18:29:07.133Z,9.20
2023-01-07T18:31:55.501Z,9.20
2023-01-07T18:34:43.490Z,9.20
2023-01-07T18:37:31.469Z,9.20
2023-01-07T18:40:21.639Z,9.20
2023-01-07T18:43:13.179Z,9.20
2023-01-07T18:46:01.360Z,9.20
2023-01-07T18:48:49.579Z,9.20
2023-01-07T18:51:37.615Z,9.20
2023-01-07T18:54:27.937Z,9.20
2023-01-07T18:57:17.291Z,9.20
2023-01-07T19:00:05.963Z,9.10
2023-01-07T19:02:54.058Z,9.10
2023-01-07T19:05:42.310Z,9.10
2023-01-07T19:08:33.587Z,9.20
2023-01-07T19:11:21.564Z,9.10
2023-01-07T19:14:11.455Z,9.10
2023-01-07T19:16:59.469Z,9.10
2023-01-07T19:19:49.129Z,9.10
2023-01-07T19:22:41.320Z,9.10
2023-01-07T19:25:29.428Z,9.10
2023-01-07T19:28:17.354Z,9.10
2023-01-07T19:31:09.467Z,9.30
2023-01-07T19:33:57.550Z,9.00
2023-01-07T19:36:47.146Z,9.10
2023-01-07T19:39:35.151Z,9.10
2023-01-07T19:42:23.244Z,9.00
2023-01-07T19:45:11.654Z,9.10
2023-01-07T19:48:00.968Z,9.00
2023-01-07T19:50:56.861Z,9.10
2023-01-07T19:53:45.035Z,9.00
2023-01-07T19:56:34.527Z,9.00
2023-01-07T19:59:22.555Z,9.00
2023-01-07T20:02:13.785Z,9.00
2023-01-07T20:05:05.790Z,9.00
2023-01-07T20:07:53.794Z,8.90
2023-01-07T20:10:41.751Z,9.00
2023-01-07T20:13:33.679Z,9.00
2023-01-07T20:16:23.386Z,9.00
2023-01-07T20:19:12.625Z,9.00
2023-01-07T20:22:01.954Z,9.00
2023-01-07T20:24:49.928Z,8.90
2023-01-07T20:27:38.194Z,8.90
2023-01-07T20:30:28.141Z,8.90
2023-01-07T20:33:17.089Z,8.90
2023-01-07T20:36:08.049Z,8.80
2023-01-07T20:38:57.728Z,8.90
2023-01-07T20:41:45.777Z,8.80
2023-01-07T20:44:34.606Z,8.80
2023-01-07T20:47:23.612Z,8.80
2023-01-07T20:50:11.610Z,8.80
2023-01-07T20:52:59.560Z,8.80
2023-01-07T20:55:51.533Z,8.70
2023-01-07T20:58:40.157Z,8.70
2023-01-07T21:01:29.621Z,8.70
2023-01-07T21:04:17.812Z,8.70
2023-01-07T21:07:05.864Z,8.70
2023-01-07T21:09:53.842Z,8.70
2023-01-07T21:12:44.146Z,8.60
2023-01-07T21:15:32.613Z,8.70
2023-01-07T21:18:20.680Z,8.70
2023-01-07T21:21:13.648Z,8.70
2023-01-07T21:24:02.873Z,8.70
2023-01-07T21:26:50.925Z,8.70
2023-01-07T21:29:40.241Z,8.70
2023-01-07T21:32:28.331Z,8.70
2023-01-07T21:35:16.869Z,8.70
2023-01-07T21:38:04.857Z,8.70
2023-01-07T21:40:52.867Z,8.60
2023-01-07T21:43:41.441Z,8.70
2023-01-07T21:46:30.780Z,8.70
2023-01-07T21:49:19.539Z,8.70
2023-01-07T21:52:07.528Z,8.70
2023-01-07T21:54:56.313Z,8.70
2023-01-07T21:57:44.725Z,8.70
2023-01-07T22:00:32.735Z,8.70
2023-01-07T22:03:22.071Z,8.70
2023-01-07T22:06:18.726Z,8.70
2023-01-07T22:09:10.757Z,8.80
2023-01-07T22:11:59.931Z,8.80
2023-01-07T22:14:47.864Z,8.80
2023-01-07T22:17:36.165Z,8.80
2023-01-07T22:20:25.444Z,8.80
2023-01-07T22:23:17.836Z,8.80
2023-01-07T22:26:07.062Z,8.80
2023-01-07T22:28:57.719Z,8.80
2023-01-07T22:31:48.247Z,8.80
2023-01-07T22:34:36.253Z,8.80
2023-01-07T22:37:26.787Z,8.80
2023-01-07T22:40:14.864Z,8.80
2023-01-07T22:43:06.325Z,8.80
2023-01-07T22:45:58.941Z,8.80
2023-01-07T22:48:46.938Z,8.80
2023-01-07T22:51:38.864Z,8.80
2023-01-07T22:54:29.118Z,8.80
2023-01-07T22:57:17.146Z,8.80
2023-01-07T23:00:09.199Z,8.80
2023-01-07T23:02:58.776Z,8.80
2023-01-07T23:05:48.314Z,8.80
2023-01-07T23:08:37.015Z,8.80
2023-01-07T23:11:43.856Z,8.80
2023-01-07T23:14:32.526Z,8.90
2023-01-07T23:17:20.508Z,8.80
2023-01-07T23:20:09.427Z,8.80
2023-01-07T23:22:57.364Z,8.80
2023-01-07T23:25:46.199Z,8.80
2023-01-07T23:28:35.571Z,8.80
2023-01-07T23:31:23.652Z,8.90
2023-01-07T23:34:11.847Z,8.90
2023-01-07T23:36:59.872Z,8.90
2023-01-07T23:39:48.273Z,8.90
2023-01-07T23:42:36.434Z,8.90
2023-01-07T23:45:26.067Z,8.90
2023-01-07T23:48:14.099Z,9.00
2023-01-07T23:51:06.165Z,9.00
2023-01-07T23:53:54.170Z,9.00
2023-01-07T23:56:42.253Z,9.00
2023-01-07T23:59:30.295Z,9.00
